LKTB

Brno-Tuřany Airport

Brno, Czech Republic
METAR LKTB 221630Z 04011KT CAVOK M01/M07 Q1018 NOSIG
Observed Flight Rules
Feb-22 @ 16:30 UTC (13 minutes ago) Visual Flight Rules
Wind Visibility Clouds
40° at 11 knots 10,000+ meters
  • Clear skies
Temperatures Readings
Current -1°C / 30°F
Dewpoint -7°C / 19°F
Humidity 64%
Altimeter 30.06" Hg
Pressure 1018 hPa
Elevation 246
METAR LKTB 221630Z 04011KT CAVOK M01/M07 Q1018 NOSIG
Observed Flight Rules
Feb-22 @ 16:30 UTC
(13 minutes ago)
VFR
Wind Visibility
40° at 11 knots 10,000+ meters
Clouds
  • Clear skies
Temperature Dewpoint
-1°C / 30°F -7°C / 19°F
Humidity Altimeter Pressure
64% 30.06" Hg 1018 hPa